sensor_id;sensor_type;location;lat;lon;timestamp;P1;durP1;ratioP1;P2;durP2;ratioP2
11514;SDS011;5814;41.936;25.556;2023-04-16T00:01:28;7.80;;;5.80;;
11514;SDS011;5814;41.936;25.556;2023-04-16T00:03:55;6.70;;;6.10;;
11514;SDS011;5814;41.936;25.556;2023-04-16T00:06:23;8.40;;;6.10;;
11514;SDS011;5814;41.936;25.556;2023-04-16T00:08:50;7.73;;;6.20;;
11514;SDS011;5814;41.936;25.556;2023-04-16T00:11:17;6.30;;;5.80;;
11514;SDS011;5814;41.936;25.556;2023-04-16T00:13:44;7.43;;;6.43;;
11514;SDS011;5814;41.936;25.556;2023-04-16T00:16:11;8.93;;;5.87;;
11514;SDS011;5814;41.936;25.556;2023-04-16T00:18:39;6.57;;;5.47;;
11514;SDS011;5814;41.936;25.556;2023-04-16T00:21:06;7.63;;;5.23;;
11514;SDS011;5814;41.936;25.556;2023-04-16T00:23:33;5.80;;;5.13;;
11514;SDS011;5814;41.936;25.556;2023-04-16T00:26:00;7.20;;;5.60;;
11514;SDS011;5814;41.936;25.556;2023-04-16T00:28:28;6.73;;;5.30;;
11514;SDS011;5814;41.936;25.556;2023-04-16T00:30:55;6.97;;;5.40;;
11514;SDS011;5814;41.936;25.556;2023-04-16T00:33:22;7.73;;;5.50;;
11514;SDS011;5814;41.936;25.556;2023-04-16T00:35:49;7.10;;;5.50;;
11514;SDS011;5814;41.936;25.556;2023-04-16T00:38:16;5.57;;;5.17;;
11514;SDS011;5814;41.936;25.556;2023-04-16T00:40:43;7.13;;;5.70;;
11514;SDS011;5814;41.936;25.556;2023-04-16T00:43:11;6.57;;;5.80;;
11514;SDS011;5814;41.936;25.556;2023-04-16T00:45:38;8.60;;;5.37;;
11514;SDS011;5814;41.936;25.556;2023-04-16T00:48:05;9.53;;;5.87;;
11514;SDS011;5814;41.936;25.556;2023-04-16T00:50:32;9.73;;;5.77;;
11514;SDS011;5814;41.936;25.556;2023-04-16T00:53:00;7.57;;;5.53;;
11514;SDS011;5814;41.936;25.556;2023-04-16T00:55:27;8.57;;;5.67;;
11514;SDS011;5814;41.936;25.556;2023-04-16T00:57:54;6.57;;;6.03;;
11514;SDS011;5814;41.936;25.556;2023-04-16T01:00:21;9.37;;;6.23;;
11514;SDS011;5814;41.936;25.556;2023-04-16T01:02:48;6.90;;;5.90;;
11514;SDS011;5814;41.936;25.556;2023-04-16T01:05:15;7.83;;;6.23;;
11514;SDS011;5814;41.936;25.556;2023-04-16T01:07:43;6.83;;;5.63;;
11514;SDS011;5814;41.936;25.556;2023-04-16T01:10:10;7.37;;;5.70;;
11514;SDS011;5814;41.936;25.556;2023-04-16T01:12:37;6.93;;;5.90;;
11514;SDS011;5814;41.936;25.556;2023-04-16T01:15:04;7.97;;;5.73;;
11514;SDS011;5814;41.936;25.556;2023-04-16T01:17:32;6.90;;;6.03;;
11514;SDS011;5814;41.936;25.556;2023-04-16T01:19:59;5.80;;;5.27;;
11514;SDS011;5814;41.936;25.556;2023-04-16T01:22:27;9.30;;;5.80;;
11514;SDS011;5814;41.936;25.556;2023-04-16T01:24:54;7.57;;;6.17;;
11514;SDS011;5814;41.936;25.556;2023-04-16T01:27:21;8.33;;;5.97;;
11514;SDS011;5814;41.936;25.556;2023-04-16T01:29:48;9.40;;;5.90;;
11514;SDS011;5814;41.936;25.556;2023-04-16T01:32:15;6.23;;;5.63;;
11514;SDS011;5814;41.936;25.556;2023-04-16T01:34:42;7.53;;;5.40;;
11514;SDS011;5814;41.936;25.556;2023-04-16T01:37:11;12.47;;;5.97;;
11514;SDS011;5814;41.936;25.556;2023-04-16T01:39:37;6.70;;;5.43;;
11514;SDS011;5814;41.936;25.556;2023-04-16T01:42:04;7.50;;;5.83;;
11514;SDS011;5814;41.936;25.556;2023-04-16T01:44:31;7.67;;;5.20;;
11514;SDS011;5814;41.936;25.556;2023-04-16T01:46:58;6.77;;;5.17;;
11514;SDS011;5814;41.936;25.556;2023-04-16T01:49:26;7.43;;;5.90;;
11514;SDS011;5814;41.936;25.556;2023-04-16T01:51:53;7.90;;;5.80;;
11514;SDS011;5814;41.936;25.556;2023-04-16T01:54:20;8.33;;;5.73;;
11514;SDS011;5814;41.936;25.556;2023-04-16T01:56:47;8.77;;;5.70;;
11514;SDS011;5814;41.936;25.556;2023-04-16T01:59:14;8.60;;;5.90;;
11514;SDS011;5814;41.936;25.556;2023-04-16T02:01:42;7.60;;;5.63;;
11514;SDS011;5814;41.936;25.556;2023-04-16T02:04:09;6.30;;;5.70;;
11514;SDS011;5814;41.936;25.556;2023-04-16T02:06:36;7.90;;;6.20;;
11514;SDS011;5814;41.936;25.556;2023-04-16T02:09:03;9.97;;;6.00;;
11514;SDS011;5814;41.936;25.556;2023-04-16T02:11:30;9.80;;;5.87;;
11514;SDS011;5814;41.936;25.556;2023-04-16T02:13:58;6.20;;;5.60;;
11514;SDS011;5814;41.936;25.556;2023-04-16T02:16:25;9.93;;;6.13;;
11514;SDS011;5814;41.936;25.556;2023-04-16T02:18:52;7.27;;;5.37;;
11514;SDS011;5814;41.936;25.556;2023-04-16T02:21:19;8.23;;;5.63;;
11514;SDS011;5814;41.936;25.556;2023-04-16T02:23:46;9.93;;;6.17;;
11514;SDS011;5814;41.936;25.556;2023-04-16T02:26:13;7.30;;;5.40;;
11514;SDS011;5814;41.936;25.556;2023-04-16T02:28:41;8.33;;;6.30;;
11514;SDS011;5814;41.936;25.556;2023-04-16T02:31:08;11.40;;;6.37;;
11514;SDS011;5814;41.936;25.556;2023-04-16T02:33:35;10.93;;;6.43;;
11514;SDS011;5814;41.936;25.556;2023-04-16T02:36:02;7.97;;;6.10;;
11514;SDS011;5814;41.936;25.556;2023-04-16T02:38:30;8.40;;;6.07;;
11514;SDS011;5814;41.936;25.556;2023-04-16T02:40:57;7.20;;;6.10;;
11514;SDS011;5814;41.936;25.556;2023-04-16T02:43:24;8.57;;;6.50;;
11514;SDS011;5814;41.936;25.556;2023-04-16T02:45:51;10.50;;;6.10;;
11514;SDS011;5814;41.936;25.556;2023-04-16T02:48:18;11.63;;;6.37;;
11514;SDS011;5814;41.936;25.556;2023-04-16T02:50:45;6.73;;;6.10;;
11514;SDS011;5814;41.936;25.556;2023-04-16T02:53:13;7.40;;;6.37;;
11514;SDS011;5814;41.936;25.556;2023-04-16T02:55:40;8.80;;;6.77;;
11514;SDS011;5814;41.936;25.556;2023-04-16T02:58:07;7.67;;;6.10;;
11514;SDS011;5814;41.936;25.556;2023-04-16T03:00:34;10.00;;;6.30;;
11514;SDS011;5814;41.936;25.556;2023-04-16T03:03:02;11.50;;;6.50;;
11514;SDS011;5814;41.936;25.556;2023-04-16T03:05:29;9.13;;;6.40;;
11514;SDS011;5814;41.936;25.556;2023-04-16T03:07:56;11.37;;;6.90;;
11514;SDS011;5814;41.936;25.556;2023-04-16T03:10:23;12.20;;;6.30;;
11514;SDS011;5814;41.936;25.556;2023-04-16T03:12:50;16.13;;;7.50;;
11514;SDS011;5814;41.936;25.556;2023-04-16T03:15:17;8.47;;;6.47;;
11514;SDS011;5814;41.936;25.556;2023-04-16T03:17:45;11.37;;;6.43;;
11514;SDS011;5814;41.936;25.556;2023-04-16T03:20:12;9.30;;;6.87;;
11514;SDS011;5814;41.936;25.556;2023-04-16T03:22:39;10.40;;;7.20;;
11514;SDS011;5814;41.936;25.556;2023-04-16T03:25:07;9.43;;;6.87;;
11514;SDS011;5814;41.936;25.556;2023-04-16T03:27:34;10.40;;;6.70;;
11514;SDS011;5814;41.936;25.556;2023-04-16T03:30:02;10.60;;;7.63;;
11514;SDS011;5814;41.936;25.556;2023-04-16T03:32:29;11.43;;;8.00;;
11514;SDS011;5814;41.936;25.556;2023-04-16T03:34:56;13.57;;;7.77;;
11514;SDS011;5814;41.936;25.556;2023-04-16T03:37:24;16.83;;;8.30;;
11514;SDS011;5814;41.936;25.556;2023-04-16T03:39:51;15.97;;;8.40;;
11514;SDS011;5814;41.936;25.556;2023-04-16T03:42:18;12.70;;;6.90;;
11514;SDS011;5814;41.936;25.556;2023-04-16T03:44:45;11.60;;;6.80;;
11514;SDS011;5814;41.936;25.556;2023-04-16T03:47:12;10.27;;;6.90;;
11514;SDS011;5814;41.936;25.556;2023-04-16T03:49:40;11.97;;;7.30;;
11514;SDS011;5814;41.936;25.556;2023-04-16T03:52:07;8.77;;;7.80;;
11514;SDS011;5814;41.936;25.556;2023-04-16T03:54:34;10.93;;;7.30;;
11514;SDS011;5814;41.936;25.556;2023-04-16T03:57:01;13.70;;;7.13;;
11514;SDS011;5814;41.936;25.556;2023-04-16T03:59:28;10.20;;;6.83;;
11514;SDS011;5814;41.936;25.556;2023-04-16T04:01:55;11.40;;;7.17;;
11514;SDS011;5814;41.936;25.556;2023-04-16T04:04:23;13.20;;;7.70;;
11514;SDS011;5814;41.936;25.556;2023-04-16T04:06:50;9.30;;;6.43;;
11514;SDS011;5814;41.936;25.556;2023-04-16T04:09:17;11.47;;;7.20;;
11514;SDS011;5814;41.936;25.556;2023-04-16T04:11:44;12.30;;;7.33;;
11514;SDS011;5814;41.936;25.556;2023-04-16T04:14:11;12.10;;;7.43;;
11514;SDS011;5814;41.936;25.556;2023-04-16T04:16:38;9.93;;;7.60;;
11514;SDS011;5814;41.936;25.556;2023-04-16T04:19:06;10.63;;;7.27;;
11514;SDS011;5814;41.936;25.556;2023-04-16T04:21:34;11.53;;;7.00;;
11514;SDS011;5814;41.936;25.556;2023-04-16T04:24:01;9.13;;;7.37;;
11514;SDS011;5814;41.936;25.556;2023-04-16T04:26:28;18.17;;;7.50;;
11514;SDS011;5814;41.936;25.556;2023-04-16T04:28:55;10.30;;;8.67;;
11514;SDS011;5814;41.936;25.556;2023-04-16T04:31:22;11.37;;;8.70;;
11514;SDS011;5814;41.936;25.556;2023-04-16T04:33:50;10.60;;;8.23;;
11514;SDS011;5814;41.936;25.556;2023-04-16T04:36:17;8.63;;;7.50;;
11514;SDS011;5814;41.936;25.556;2023-04-16T04:38:44;14.47;;;12.97;;
11514;SDS011;5814;41.936;25.556;2023-04-16T04:41:11;8.60;;;7.27;;
11514;SDS011;5814;41.936;25.556;2023-04-16T04:43:38;11.67;;;8.70;;
11514;SDS011;5814;41.936;25.556;2023-04-16T04:46:05;10.23;;;7.00;;
11514;SDS011;5814;41.936;25.556;2023-04-16T04:48:33;12.20;;;7.27;;
11514;SDS011;5814;41.936;25.556;2023-04-16T04:51:00;9.13;;;7.40;;
11514;SDS011;5814;41.936;25.556;2023-04-16T04:53:27;9.93;;;7.20;;
11514;SDS011;5814;41.936;25.556;2023-04-16T04:55:54;8.70;;;7.50;;
11514;SDS011;5814;41.936;25.556;2023-04-16T04:58:21;9.50;;;6.77;;
11514;SDS011;5814;41.936;25.556;2023-04-16T05:00:49;9.73;;;6.90;;
11514;SDS011;5814;41.936;25.556;2023-04-16T05:03:19;9.53;;;6.83;;
11514;SDS011;5814;41.936;25.556;2023-04-16T05:05:46;8.97;;;6.77;;
11514;SDS011;5814;41.936;25.556;2023-04-16T05:08:13;12.67;;;7.20;;
11514;SDS011;5814;41.936;25.556;2023-04-16T05:10:40;10.83;;;7.30;;
11514;SDS011;5814;41.936;25.556;2023-04-16T05:13:07;10.90;;;6.53;;
11514;SDS011;5814;41.936;25.556;2023-04-16T05:15:34;10.60;;;6.70;;
11514;SDS011;5814;41.936;25.556;2023-04-16T05:18:02;9.63;;;6.60;;
11514;SDS011;5814;41.936;25.556;2023-04-16T05:20:29;14.83;;;8.20;;
11514;SDS011;5814;41.936;25.556;2023-04-16T05:22:56;11.50;;;8.00;;
11514;SDS011;5814;41.936;25.556;2023-04-16T05:25:23;8.93;;;7.23;;
11514;SDS011;5814;41.936;25.556;2023-04-16T05:27:50;14.07;;;8.10;;
11514;SDS011;5814;41.936;25.556;2023-04-16T05:30:18;9.50;;;8.23;;
11514;SDS011;5814;41.936;25.556;2023-04-16T05:32:45;9.63;;;7.83;;
11514;SDS011;5814;41.936;25.556;2023-04-16T05:35:12;11.50;;;8.10;;
11514;SDS011;5814;41.936;25.556;2023-04-16T05:37:39;9.33;;;7.27;;
11514;SDS011;5814;41.936;25.556;2023-04-16T05:40:07;9.00;;;7.90;;
11514;SDS011;5814;41.936;25.556;2023-04-16T05:42:35;8.70;;;7.80;;
11514;SDS011;5814;41.936;25.556;2023-04-16T05:45:02;11.20;;;8.53;;
11514;SDS011;5814;41.936;25.556;2023-04-16T05:47:30;11.73;;;8.60;;
11514;SDS011;5814;41.936;25.556;2023-04-16T05:49:57;12.10;;;8.87;;
11514;SDS011;5814;41.936;25.556;2023-04-16T05:52:25;14.40;;;8.73;;
11514;SDS011;5814;41.936;25.556;2023-04-16T05:54:52;12.93;;;8.90;;
11514;SDS011;5814;41.936;25.556;2023-04-16T05:57:19;17.10;;;9.40;;
11514;SDS011;5814;41.936;25.556;2023-04-16T05:59:46;12.23;;;9.00;;
11514;SDS011;5814;41.936;25.556;2023-04-16T06:02:13;13.60;;;9.60;;
11514;SDS011;5814;41.936;25.556;2023-04-16T06:04:40;15.20;;;11.20;;
11514;SDS011;5814;41.936;25.556;2023-04-16T06:07:08;16.67;;;11.70;;
11514;SDS011;5814;41.936;25.556;2023-04-16T06:09:35;16.17;;;10.97;;
11514;SDS011;5814;41.936;25.556;2023-04-16T06:12:02;14.13;;;10.07;;
11514;SDS011;5814;41.936;25.556;2023-04-16T06:14:29;20.70;;;10.90;;
11514;SDS011;5814;41.936;25.556;2023-04-16T06:16:56;14.37;;;8.67;;
11514;SDS011;5814;41.936;25.556;2023-04-16T06:19:24;13.60;;;8.00;;
11514;SDS011;5814;41.936;25.556;2023-04-16T06:21:51;12.50;;;8.40;;
11514;SDS011;5814;41.936;25.556;2023-04-16T06:24:18;12.00;;;9.50;;
11514;SDS011;5814;41.936;25.556;2023-04-16T06:26:45;12.15;;;8.77;;
11514;SDS011;5814;41.936;25.556;2023-04-16T06:29:12;14.98;;;8.95;;
11514;SDS011;5814;41.936;25.556;2023-04-16T06:31:40;18.55;;;9.40;;
11514;SDS011;5814;41.936;25.556;2023-04-16T06:34:07;12.48;;;9.13;;
11514;SDS011;5814;41.936;25.556;2023-04-16T06:36:34;13.52;;;9.80;;
11514;SDS011;5814;41.936;25.556;2023-04-16T06:39:01;15.45;;;9.10;;
11514;SDS011;5814;41.936;25.556;2023-04-16T06:41:28;12.45;;;9.13;;
11514;SDS011;5814;41.936;25.556;2023-04-16T06:43:55;14.85;;;10.63;;
11514;SDS011;5814;41.936;25.556;2023-04-16T06:46:23;11.53;;;9.50;;
11514;SDS011;5814;41.936;25.556;2023-04-16T06:48:50;12.55;;;8.98;;
11514;SDS011;5814;41.936;25.556;2023-04-16T06:51:17;16.65;;;8.93;;
11514;SDS011;5814;41.936;25.556;2023-04-16T06:53:44;12.23;;;8.13;;
11514;SDS011;5814;41.936;25.556;2023-04-16T06:56:11;13.37;;;9.10;;
11514;SDS011;5814;41.936;25.556;2023-04-16T06:58:38;11.77;;;8.93;;
11514;SDS011;5814;41.936;25.556;2023-04-16T07:01:06;11.75;;;8.63;;
11514;SDS011;5814;41.936;25.556;2023-04-16T07:03:33;10.52;;;8.23;;
11514;SDS011;5814;41.936;25.556;2023-04-16T07:06:00;11.95;;;8.50;;
11514;SDS011;5814;41.936;25.556;2023-04-16T07:08:27;13.43;;;9.48;;
11514;SDS011;5814;41.936;25.556;2023-04-16T07:10:54;15.20;;;8.57;;
11514;SDS011;5814;41.936;25.556;2023-04-16T07:13:21;15.60;;;8.50;;
11514;SDS011;5814;41.936;25.556;2023-04-16T07:15:49;11.05;;;8.70;;
11514;SDS011;5814;41.936;25.556;2023-04-16T07:18:16;9.25;;;8.30;;
11514;SDS011;5814;41.936;25.556;2023-04-16T07:20:43;11.75;;;7.62;;
11514;SDS011;5814;41.936;25.556;2023-04-16T07:23:10;15.35;;;9.18;;
11514;SDS011;5814;41.936;25.556;2023-04-16T07:25:37;10.82;;;7.82;;
11514;SDS011;5814;41.936;25.556;2023-04-16T07:28:04;11.35;;;8.63;;
11514;SDS011;5814;41.936;25.556;2023-04-16T07:30:32;8.45;;;7.55;;
11514;SDS011;5814;41.936;25.556;2023-04-16T07:33:02;11.77;;;8.00;;
11514;SDS011;5814;41.936;25.556;2023-04-16T07:35:27;8.20;;;7.07;;
11514;SDS011;5814;41.936;25.556;2023-04-16T07:37:54;12.55;;;7.22;;
11514;SDS011;5814;41.936;25.556;2023-04-16T07:40:21;10.40;;;8.05;;
11514;SDS011;5814;41.936;25.556;2023-04-16T07:42:48;11.43;;;8.00;;
11514;SDS011;5814;41.936;25.556;2023-04-16T07:45:16;9.15;;;8.02;;
11514;SDS011;5814;41.936;25.556;2023-04-16T07:47:43;10.00;;;7.28;;
11514;SDS011;5814;41.936;25.556;2023-04-16T07:50:10;11.00;;;7.87;;
11514;SDS011;5814;41.936;25.556;2023-04-16T07:52:37;13.50;;;7.72;;
11514;SDS011;5814;41.936;25.556;2023-04-16T07:55:04;9.60;;;7.12;;
11514;SDS011;5814;41.936;25.556;2023-04-16T07:57:32;15.05;;;8.07;;
11514;SDS011;5814;41.936;25.556;2023-04-16T07:59:59;12.30;;;7.53;;
11514;SDS011;5814;41.936;25.556;2023-04-16T08:02:28;13.38;;;6.85;;
11514;SDS011;5814;41.936;25.556;2023-04-16T08:04:55;14.32;;;7.40;;
11514;SDS011;5814;41.936;25.556;2023-04-16T08:07:22;14.52;;;7.03;;
11514;SDS011;5814;41.936;25.556;2023-04-16T08:09:50;14.95;;;8.07;;
11514;SDS011;5814;41.936;25.556;2023-04-16T08:12:17;14.90;;;7.65;;
11514;SDS011;5814;41.936;25.556;2023-04-16T08:14:44;10.25;;;6.95;;
11514;SDS011;5814;41.936;25.556;2023-04-16T08:17:11;15.13;;;7.90;;
11514;SDS011;5814;41.936;25.556;2023-04-16T08:19:38;12.80;;;6.87;;
11514;SDS011;5814;41.936;25.556;2023-04-16T08:22:05;12.02;;;7.10;;
11514;SDS011;5814;41.936;25.556;2023-04-16T08:24:32;11.25;;;7.18;;
11514;SDS011;5814;41.936;25.556;2023-04-16T08:27:00;14.18;;;7.62;;
11514;SDS011;5814;41.936;25.556;2023-04-16T08:29:27;14.77;;;7.10;;
11514;SDS011;5814;41.936;25.556;2023-04-16T08:31:54;11.48;;;7.12;;
11514;SDS011;5814;41.936;25.556;2023-04-16T08:34:21;11.38;;;7.40;;
11514;SDS011;5814;41.936;25.556;2023-04-16T08:36:48;9.23;;;7.22;;
11514;SDS011;5814;41.936;25.556;2023-04-16T08:39:15;12.30;;;7.57;;
11514;SDS011;5814;41.936;25.556;2023-04-16T08:41:43;11.48;;;7.15;;
11514;SDS011;5814;41.936;25.556;2023-04-16T08:44:12;21.37;;;7.78;;
11514;SDS011;5814;41.936;25.556;2023-04-16T08:46:37;14.02;;;7.80;;
11514;SDS011;5814;41.936;25.556;2023-04-16T08:49:05;10.52;;;7.00;;
11514;SDS011;5814;41.936;25.556;2023-04-16T08:51:32;12.02;;;7.22;;
11514;SDS011;5814;41.936;25.556;2023-04-16T08:54:03;13.18;;;7.82;;
11514;SDS011;5814;41.936;25.556;2023-04-16T08:56:30;10.85;;;7.22;;
11514;SDS011;5814;41.936;25.556;2023-04-16T08:58:57;12.68;;;7.15;;
11514;SDS011;5814;41.936;25.556;2023-04-16T09:01:24;11.30;;;7.07;;
11514;SDS011;5814;41.936;25.556;2023-04-16T09:03:52;13.88;;;7.57;;
11514;SDS011;5814;41.936;25.556;2023-04-16T09:06:20;9.65;;;7.15;;
11514;SDS011;5814;41.936;25.556;2023-04-16T09:08:47;14.05;;;7.50;;
11514;SDS011;5814;41.936;25.556;2023-04-16T09:11:16;10.95;;;7.28;;
11514;SDS011;5814;41.936;25.556;2023-04-16T09:13:41;13.70;;;7.50;;
11514;SDS011;5814;41.936;25.556;2023-04-16T09:16:08;13.27;;;7.75;;
11514;SDS011;5814;41.936;25.556;2023-04-16T09:18:36;11.43;;;7.62;;
11514;SDS011;5814;41.936;25.556;2023-04-16T09:21:03;15.70;;;7.37;;
11514;SDS011;5814;41.936;25.556;2023-04-16T09:23:30;10.93;;;7.30;;
11514;SDS011;5814;41.936;25.556;2023-04-16T09:25:58;12.13;;;7.12;;
11514;SDS011;5814;41.936;25.556;2023-04-16T09:31:07;11.45;;;7.20;;
11514;SDS011;5814;41.936;25.556;2023-04-16T09:33:34;17.25;;;7.45;;
11514;SDS011;5814;41.936;25.556;2023-04-16T09:36:01;11.07;;;7.57;;
11514;SDS011;5814;41.936;25.556;2023-04-16T09:41:15;9.02;;;7.12;;
11514;SDS011;5814;41.936;25.556;2023-04-16T09:43:52;11.43;;;7.10;;
11514;SDS011;5814;41.936;25.556;2023-04-16T09:46:39;14.25;;;8.30;;
11514;SDS011;5814;41.936;25.556;2023-04-16T09:49:07;12.37;;;8.90;;
11514;SDS011;5814;41.936;25.556;2023-04-16T09:51:36;16.48;;;10.15;;
11514;SDS011;5814;41.936;25.556;2023-04-16T09:54:04;14.43;;;9.32;;
11514;SDS011;5814;41.936;25.556;2023-04-16T09:56:31;13.77;;;9.27;;
11514;SDS011;5814;41.936;25.556;2023-04-16T09:58:59;15.52;;;9.60;;
11514;SDS011;5814;41.936;25.556;2023-04-16T10:01:26;13.52;;;8.40;;
11514;SDS011;5814;41.936;25.556;2023-04-16T10:03:53;9.88;;;7.95;;
11514;SDS011;5814;41.936;25.556;2023-04-16T10:06:21;9.77;;;7.57;;
11514;SDS011;5814;41.936;25.556;2023-04-16T10:08:50;14.07;;;8.05;;
11514;SDS011;5814;41.936;25.556;2023-04-16T10:11:16;14.02;;;7.72;;
11514;SDS011;5814;41.936;25.556;2023-04-16T10:13:43;9.38;;;7.18;;
11514;SDS011;5814;41.936;25.556;2023-04-16T10:16:10;11.35;;;6.43;;
11514;SDS011;5814;41.936;25.556;2023-04-16T10:18:39;12.82;;;7.85;;
11514;SDS011;5814;41.936;25.556;2023-04-16T10:21:07;9.50;;;8.55;;
11514;SDS011;5814;41.936;25.556;2023-04-16T10:23:34;11.05;;;7.82;;
11514;SDS011;5814;41.936;25.556;2023-04-16T10:26:01;9.77;;;7.75;;
11514;SDS011;5814;41.936;25.556;2023-04-16T10:28:28;12.50;;;9.13;;
11514;SDS011;5814;41.936;25.556;2023-04-16T10:30:56;12.43;;;10.00;;
11514;SDS011;5814;41.936;25.556;2023-04-16T10:33:26;10.07;;;9.18;;
11514;SDS011;5814;41.936;25.556;2023-04-16T10:36:25;14.27;;;10.13;;
11514;SDS011;5814;41.936;25.556;2023-04-16T10:38:37;11.15;;;9.43;;
11514;SDS011;5814;41.936;25.556;2023-04-16T10:41:04;10.55;;;8.68;;
11514;SDS011;5814;41.936;25.556;2023-04-16T10:43:32;8.18;;;7.30;;
11514;SDS011;5814;41.936;25.556;2023-04-16T10:48:37;6.57;;;6.00;;
11514;SDS011;5814;41.936;25.556;2023-04-16T10:51:04;6.68;;;6.12;;
11514;SDS011;5814;41.936;25.556;2023-04-16T10:53:32;9.13;;;7.40;;
11514;SDS011;5814;41.936;25.556;2023-04-16T10:56:09;6.70;;;6.20;;
11514;SDS011;5814;41.936;25.556;2023-04-16T10:58:36;7.78;;;7.15;;
11514;SDS011;5814;41.936;25.556;2023-04-16T11:01:09;6.28;;;5.78;;
11514;SDS011;5814;41.936;25.556;2023-04-16T11:03:39;7.43;;;6.82;;
11514;SDS011;5814;41.936;25.556;2023-04-16T11:06:09;6.20;;;5.90;;
11514;SDS011;5814;41.936;25.556;2023-04-16T11:08:45;7.53;;;6.70;;
11514;SDS011;5814;41.936;25.556;2023-04-16T11:11:12;6.50;;;6.10;;
11514;SDS011;5814;41.936;25.556;2023-04-16T11:13:41;7.82;;;7.07;;
11514;SDS011;5814;41.936;25.556;2023-04-16T11:16:08;6.07;;;5.68;;
11514;SDS011;5814;41.936;25.556;2023-04-16T11:18:35;6.57;;;6.00;;
11514;SDS011;5814;41.936;25.556;2023-04-16T11:21:02;6.97;;;6.28;;
11514;SDS011;5814;41.936;25.556;2023-04-16T11:23:29;7.65;;;6.22;;
11514;SDS011;5814;41.936;25.556;2023-04-16T11:25:56;10.63;;;6.30;;
11514;SDS011;5814;41.936;25.556;2023-04-16T11:30:58;7.85;;;7.00;;
11514;SDS011;5814;41.936;25.556;2023-04-16T11:33:26;6.22;;;5.60;;
11514;SDS011;5814;41.936;25.556;2023-04-16T11:35:55;7.62;;;6.68;;
11514;SDS011;5814;41.936;25.556;2023-04-16T11:38:31;8.60;;;6.47;;
11514;SDS011;5814;41.936;25.556;2023-04-16T11:40:49;9.40;;;7.05;;
11514;SDS011;5814;41.936;25.556;2023-04-16T11:43:20;6.30;;;5.80;;
11514;SDS011;5814;41.936;25.556;2023-04-16T11:48:22;7.70;;;6.80;;
11514;SDS011;5814;41.936;25.556;2023-04-16T11:50:56;6.47;;;5.97;;
11514;SDS011;5814;41.936;25.556;2023-04-16T11:53:24;7.55;;;6.93;;
11514;SDS011;5814;41.936;25.556;2023-04-16T11:55:51;8.05;;;7.22;;
11514;SDS011;5814;41.936;25.556;2023-04-16T11:58:18;9.02;;;7.05;;
11514;SDS011;5814;41.936;25.556;2023-04-16T12:00:45;9.02;;;7.97;;
11514;SDS011;5814;41.936;25.556;2023-04-16T12:03:12;8.15;;;7.35;;
11514;SDS011;5814;41.936;25.556;2023-04-16T12:05:39;9.45;;;7.35;;
11514;SDS011;5814;41.936;25.556;2023-04-16T12:08:07;11.90;;;6.95;;
11514;SDS011;5814;41.936;25.556;2023-04-16T12:10:35;6.80;;;6.30;;
11514;SDS011;5814;41.936;25.556;2023-04-16T12:15:42;7.78;;;7.00;;
11514;SDS011;5814;41.936;25.556;2023-04-16T12:18:10;7.65;;;6.82;;
11514;SDS011;5814;41.936;25.556;2023-04-16T12:20:38;7.90;;;6.93;;
11514;SDS011;5814;41.936;25.556;2023-04-16T12:23:05;7.03;;;6.62;;
11514;SDS011;5814;41.936;25.556;2023-04-16T12:25:32;7.85;;;7.18;;
11514;SDS011;5814;41.936;25.556;2023-04-16T12:27:59;7.95;;;7.25;;
11514;SDS011;5814;41.936;25.556;2023-04-16T12:30:27;8.85;;;7.15;;
11514;SDS011;5814;41.936;25.556;2023-04-16T12:35:33;7.20;;;6.50;;
11514;SDS011;5814;41.936;25.556;2023-04-16T12:38:00;7.18;;;6.40;;
11514;SDS011;5814;41.936;25.556;2023-04-16T12:40:27;7.62;;;6.47;;
11514;SDS011;5814;41.936;25.556;2023-04-16T12:42:54;6.30;;;5.70;;
11514;SDS011;5814;41.936;25.556;2023-04-16T12:45:23;6.43;;;5.68;;
11514;SDS011;5814;41.936;25.556;2023-04-16T12:47:48;7.22;;;6.53;;
11514;SDS011;5814;41.936;25.556;2023-04-16T12:50:16;7.03;;;6.40;;
11514;SDS011;5814;41.936;25.556;2023-04-16T12:52:43;8.23;;;6.37;;
11514;SDS011;5814;41.936;25.556;2023-04-16T12:55:10;7.40;;;6.70;;
11514;SDS011;5814;41.936;25.556;2023-04-16T12:57:37;6.90;;;6.18;;
11514;SDS011;5814;41.936;25.556;2023-04-16T13:00:05;7.15;;;6.25;;
11514;SDS011;5814;41.936;25.556;2023-04-16T13:02:34;7.60;;;6.03;;
11514;SDS011;5814;41.936;25.556;2023-04-16T13:05:01;5.90;;;5.40;;
11514;SDS011;5814;41.936;25.556;2023-04-16T13:07:28;7.95;;;6.25;;
11514;SDS011;5814;41.936;25.556;2023-04-16T13:09:55;6.07;;;5.47;;
11514;SDS011;5814;41.936;25.556;2023-04-16T13:12:22;7.00;;;6.40;;
11514;SDS011;5814;41.936;25.556;2023-04-16T13:14:49;7.03;;;6.18;;
11514;SDS011;5814;41.936;25.556;2023-04-16T13:17:17;6.47;;;5.87;;
11514;SDS011;5814;41.936;25.556;2023-04-16T13:19:44;6.97;;;6.07;;
11514;SDS011;5814;41.936;25.556;2023-04-16T13:22:11;6.07;;;5.53;;
11514;SDS011;5814;41.936;25.556;2023-04-16T13:24:38;6.45;;;5.85;;
11514;SDS011;5814;41.936;25.556;2023-04-16T13:27:05;7.87;;;5.70;;
11514;SDS011;5814;41.936;25.556;2023-04-16T13:29:33;8.38;;;5.50;;
11514;SDS011;5814;41.936;25.556;2023-04-16T13:32:02;6.30;;;5.62;;
11514;SDS011;5814;41.936;25.556;2023-04-16T13:34:30;8.05;;;5.65;;
11514;SDS011;5814;41.936;25.556;2023-04-16T13:36:57;6.15;;;5.55;;
11514;SDS011;5814;41.936;25.556;2023-04-16T13:39:24;5.30;;;4.80;;
11514;SDS011;5814;41.936;25.556;2023-04-16T13:41:52;5.30;;;4.80;;
11514;SDS011;5814;41.936;25.556;2023-04-16T13:44:19;5.93;;;5.35;;
11514;SDS011;5814;41.936;25.556;2023-04-16T13:46:46;6.72;;;5.87;;
11514;SDS011;5814;41.936;25.556;2023-04-16T13:49:13;6.15;;;5.55;;
11514;SDS011;5814;41.936;25.556;2023-04-16T13:51:42;6.30;;;5.70;;
11514;SDS011;5814;41.936;25.556;2023-04-16T13:54:09;7.50;;;5.72;;
11514;SDS011;5814;41.936;25.556;2023-04-16T13:56:37;7.57;;;6.20;;
11514;SDS011;5814;41.936;25.556;2023-04-16T13:59:04;6.87;;;6.15;;
11514;SDS011;5814;41.936;25.556;2023-04-16T14:01:31;7.35;;;6.50;;
11514;SDS011;5814;41.936;25.556;2023-04-16T14:03:59;8.45;;;6.57;;
11514;SDS011;5814;41.936;25.556;2023-04-16T14:06:25;8.48;;;5.72;;
11514;SDS011;5814;41.936;25.556;2023-04-16T14:08:52;6.62;;;5.90;;
11514;SDS011;5814;41.936;25.556;2023-04-16T14:11:20;8.20;;;6.45;;
11514;SDS011;5814;41.936;25.556;2023-04-16T14:13:47;7.18;;;6.55;;
11514;SDS011;5814;41.936;25.556;2023-04-16T14:16:14;9.65;;;7.07;;
11514;SDS011;5814;41.936;25.556;2023-04-16T14:18:41;9.02;;;6.35;;
11514;SDS011;5814;41.936;25.556;2023-04-16T14:21:08;6.78;;;6.15;;
11514;SDS011;5814;41.936;25.556;2023-04-16T14:23:35;9.00;;;6.62;;
11514;SDS011;5814;41.936;25.556;2023-04-16T14:26:03;11.02;;;6.55;;
11514;SDS011;5814;41.936;25.556;2023-04-16T14:28:30;8.57;;;5.60;;
11514;SDS011;5814;41.936;25.556;2023-04-16T14:30:57;9.38;;;6.18;;
11514;SDS011;5814;41.936;25.556;2023-04-16T14:33:24;8.60;;;6.00;;
11514;SDS011;5814;41.936;25.556;2023-04-16T14:35:51;10.75;;;5.90;;
11514;SDS011;5814;41.936;25.556;2023-04-16T14:38:19;10.73;;;6.47;;
11514;SDS011;5814;41.936;25.556;2023-04-16T14:40:46;8.30;;;6.22;;
11514;SDS011;5814;41.936;25.556;2023-04-16T14:43:13;10.80;;;6.22;;
11514;SDS011;5814;41.936;25.556;2023-04-16T14:45:40;8.38;;;5.82;;
11514;SDS011;5814;41.936;25.556;2023-04-16T14:48:07;9.15;;;6.37;;
11514;SDS011;5814;41.936;25.556;2023-04-16T14:50:35;9.25;;;6.37;;
11514;SDS011;5814;41.936;25.556;2023-04-16T14:53:03;7.93;;;6.62;;
11514;SDS011;5814;41.936;25.556;2023-04-16T14:55:30;6.60;;;6.00;;
11514;SDS011;5814;41.936;25.556;2023-04-16T14:57:57;7.15;;;5.87;;
11514;SDS011;5814;41.936;25.556;2023-04-16T15:00:24;7.68;;;5.68;;